• Join FlightAware (Why Join?)
  • Login
  • US Flag 
02:09AM EDT


 

Airport Tracker/Info


-or-


 

Live Flight TrackerFlight Track Log ✈ RPA3869 ✈ 20-May-2013 ✈ KMYR - KEWR

Flight Track Log - Related Links

Times and Time Zones

All times are in EDT time to prevent confusion due to time zone crossing. See the RPA3869 flight status page for this flight to view local times or setup timezone preferences in your user account.

Time Position Orientation Groundspeed Altitude Reporting Facility
EDT Latitude Longitude Course Direction KTS MPH feet Rate Location/Type
02:17PM 33.8491 -78.6538 50° Northeast  Level FlightAware Approximate
02:17PM 33.7367 -78.7969 56° Northeast 250 288 3,900  Level Jacksonville Center
02:18PM 33.9124 -78.5632 50° Northeast  Level FlightAware Approximate
02:18PM 33.7953 -78.7417 38° Northeast 255 293 5,600  Level Jacksonville Center
02:19PM 33.9620 -78.4618 64° Northeast  Level FlightAware Approximate
02:19PM 33.8472 -78.6742 47° Northeast 267 307 7,500  Level Jacksonville Center
02:20PM 34.0274 -78.3740 46° Northeast  Level FlightAware Approximate
02:20PM 33.8908 -78.6022 54° Northeast 267 307 9,600  Level Jacksonville Center
02:21PM 34.0765 -78.2804 59° Northeast  Level FlightAware Approximate
02:21PM 33.9150 -78.5208 70° East 260 299 11,200  Level Jacksonville Center
02:22PM 34.1345 -78.2046 56° Northeast  Level FlightAware Approximate
02:22PM 33.9308 -78.3725 83° East 263 303 13,700  Level Washington Center
02:23PM 33.9867 -78.3092 43° Northeast 258 297 15,100 1,320 Climbing Washington Center
02:24PM 34.0444 -78.2461 42° Northeast 263 303 16,400 1,260 Climbing Washington Center
02:25PM 34.1000 -78.1800 45° Northeast 268 308 17,600 900 Climbing Washington Center
02:26PM 34.1578 -78.1142 43° Northeast 279 321 18,300 780 Climbing Washington Center
02:27PM 34.2136 -78.0431 46° Northeast 279 321 19,300 900 Climbing Washington Center
02:28PM 34.2692 -77.9744 46° Northeast 279 321 20,200 780 Climbing Washington Center
02:29PM 34.3311 -77.9056 43° Northeast 285 328 20,900 360 Climbing Washington Center
02:30PM 34.4069 -77.8625 25° Northeast 290 334 21,000  Climbing Washington Center
02:31PM 34.4969 -77.8422 11° North 290 334 21,000  Level Washington Center
02:32PM 34.5914 -77.8197 11° North 322 371 21,000  Level Washington Center
02:33PM 34.6856 -77.7944 12° North 340 391 21,000  Level Washington Center
02:34PM 34.7842 -77.7694 12° North 346 398 21,000  Level Washington Center
02:35PM 34.8786 -77.7439 13° North 346 398 21,000  Level Washington Center
02:36PM 34.9750 -77.7211 11° North 346 398 21,000  Level Washington Center
02:37PM 35.0650 -77.6983 12° North 357 411 21,000  Level Washington Center
02:38PM 35.1614 -77.6728 12° North 357 411 21,000  Level Washington Center
02:39PM 35.2578 -77.6497 11° North 352 405 21,000  Level Washington Center
02:40PM 35.3564 -77.6244 12° North 357 411 21,000  Level Washington Center
02:41PM 35.4528 -77.5989 12° North 357 411 21,000  Level Washington Center
02:42PM 35.5533 -77.5758 11° North 357 411 21,000  Level Washington Center
02:43PM 35.6519 -77.5500 12° North 357 411 21,000  Level Washington Center
02:44PM 35.7481 -77.5269 11° North 357 411 21,000  Level Washington Center
02:45PM 35.8444 -77.5011 12° North 357 411 21,000  Level Washington Center
02:46PM 35.9450 -77.4778 11° North 357 411 21,000  Level Washington Center
02:47PM 36.0436 -77.4544 11° North 357 411 21,000  Level Washington Center
02:48PM 36.1419 -77.4258 13° North 357 411 21,000  Level Washington Center
02:49PM 36.2383 -77.4050 10° North 352 405 21,000  Level Washington Center
02:50PM 36.3367 -77.3917 North 352 405 21,000  Level Washington Center
02:51PM 36.4347 -77.3914 360° North 352 405 21,000  Level Washington Center
02:52PM 36.5347 -77.3886 North 352 405 21,000  Level Washington Center
02:53PM 36.6350 -77.3908 359° North 347 399 21,000  Level Washington Center
02:54PM 36.7350 -77.3906 360° North 347 399 21,000  Level Washington Center
02:55PM 36.8353 -77.3928 359° North 347 399 21,000  Level Washington Center
02:56PM 36.9353 -77.3900 North 347 399 21,000  Level Washington Center
02:57PM 37.0258 -77.3375 25° Northeast 347 399 21,000  Level Washington Center
02:58PM 37.1164 -77.2797 27° Northeast 352 405 21,000  Level Washington Center
02:59PM 37.2069 -77.2242 26° Northeast 357 411 21,000  Level Washington Center
03:00PM 37.2953 -77.1714 25° Northeast 357 411 21,000  Level Washington Center
03:01PM 37.3736 -77.0761 44° Northeast 349 402 21,000  Level Washington Center
03:02PM 37.4472 -77.0200 31° Northeast 343 395 21,000  Level Washington Center
03:03PM 37.5461 -76.9617 25° Northeast 343 395 21,000 -540 Level Washington Center
03:04PM 37.6361 -76.9136 23° Northeast 348 400 20,000 -1,020 Descending Washington Center
03:05PM 37.7328 -76.8628 23° Northeast 358 412 19,000 -1,020 Descending Washington Center
03:06PM 37.8272 -76.8117 23° Northeast 358 412 18,000 -960 Descending Washington Center
03:07PM 37.9194 -76.7606 24° Northeast 358 412 17,100 -540 Descending Washington Center
03:08PM 38.0053 -76.7144 23° Northeast 358 412 17,000 -60 Descending Washington Center
03:09PM 38.0975 -76.6631 24° Northeast 358 412 17,000  Level Washington Center
03:10PM 38.1856 -76.6033 28° Northeast 353 406 17,000  Level Washington Center
03:11PM 38.2717 -76.5411 30° Northeast 353 406 17,000 -60 Level Washington Center
03:12PM 38.3658 -76.4789 27° Northeast 348 400 16,900 -840 Descending Washington Center
03:13PM 38.4561 -76.4136 30° Northeast 353 406 15,400 -1,500 Descending Washington Center
03:14PM 38.5336 -76.3586 29° Northeast 360 414 14,000 -1,260 Descending Washington Center
03:15PM 38.6194 -76.3039 26° Northeast 354 407 13,000 -540 Descending Washington Center
03:16PM 38.7072 -76.2753 14° North 335 386 13,000 -300 Level Washington Center
03:17PM 38.7950 -76.2336 20° North 330 380 12,500 -840 Descending Washington Center
03:18PM 38.8786 -76.1836 25° Northeast 330 380 11,400 -780 Descending Washington Center
03:19PM 38.9664 -76.1336 24° Northeast 335 386 11,000 -240 Descending Washington Center
03:20PM 39.0478 -76.0861 24° Northeast 335 386 11,000  Level Washington Center
03:21PM 39.1314 -76.0386 24° Northeast 335 386 11,000  Level Washington Center
03:22PM 39.2192 -75.9908 23° Northeast 335 386 11,000  Level Washington Center
03:23PM 39.3025 -75.9403 25° Northeast 335 386 11,000  Level Washington Center
03:26PM 39.5167 -75.8000 27° Northeast 335 386 11,000  Level Philadelphia TRACON
03:27PM 39.5667 -75.7000 57° Northeast 334 384 11,000  Level Philadelphia TRACON
03:28PM 39.6167 -75.5833 61° Northeast 335 386 11,000  Level Philadelphia TRACON
03:29PM 39.6500 -75.4833 67° East 335 386 11,000  Level Philadelphia TRACON
03:30PM 39.7000 -75.3833 57° Northeast 337 388 11,000 -180 Level Philadelphia TRACON
03:31PM 39.7333 -75.2667 70° East 338 389 10,700 -540 Descending Philadelphia TRACON
03:32PM 39.7833 -75.1667 57° Northeast 344 396 10,000 -360 Descending Philadelphia TRACON
03:33PM 39.8167 -75.0667 67° East 335 386 10,000  Level Philadelphia TRACON
03:34PM 39.8833 -74.9667 49° Northeast 336 387 10,000 -300 Level Philadelphia TRACON
03:35PM 39.9333 -74.8833 52° Northeast 335 386 9,500 -840 Descending Philadelphia TRACON
03:35PM 39.9667 -74.8333 49° Northeast 308 354 8,800 -1,560 Descending New York TRACON
03:36PM 40.0167 -74.7500 52° Northeast 287 330 7,100 -900 Descending New York TRACON
03:37PM 40.0667 -74.6833 46° Northeast 277 319 7,000 -60 Descending New York TRACON
03:38PM 40.1333 -74.6000 44° Northeast 281 323 7,000  Level New York TRACON
03:39PM 40.1833 -74.5333 46° Northeast 280 322 7,000  Level New York TRACON
03:40PM 40.2500 -74.5333 360° North 272 313 7,000 -480 Level New York TRACON
03:41PM 40.3333 -74.5333 360° North 270 311 6,100 -540 Descending New York TRACON
03:42PM 40.4000 -74.5333 360° North 267 307 6,000 -60 Descending New York TRACON
03:43PM 40.4833 -74.5333 360° North 265 305 6,000  Level New York TRACON
03:44PM 40.5500 -74.5167 11° North 272 313 6,000 -300 Level New York TRACON
03:45PM 40.6333 -74.5167 360° North 268 308 5,500 -540 Descending New York TRACON
03:46PM 40.7000 -74.5167 360° North 253 291 5,000 -300 Descending New York TRACON
03:47PM 40.7667 -74.5333 349° North 260 299 5,000  Level New York TRACON
03:48PM 40.8333 -74.4833 30° Northeast 273 314 5,000  Level New York TRACON
03:49PM 40.8833 -74.4000 52° Northeast 273 314 5,000  Level New York TRACON
03:50PM 40.9167 -74.3333 56° Northeast 270 311 5,000 -480 Level New York TRACON
03:51PM 40.9500 -74.2333 66° East 264 304 4,100 -540 Descending New York TRACON
03:52PM 40.9500 -74.1500 90° East 276 318 4,000 -120 Descending New York TRACON
03:53PM 40.9000 -74.0667 128° Southeast 221 254 3,900 -540 Descending New York TRACON
03:54PM 40.8500 -74.0667 180° South 197 227 3,000 -900 Descending New York TRACON